sensor_id;sensor_type;location;lat;lon;timestamp;temperature;humidity
74869;DHT22;63419;42.262;12.210;2023-05-29T00:01:27;15.60;99.90
74869;DHT22;63419;42.262;12.210;2023-05-29T00:03:54;15.60;99.90
74869;DHT22;63419;42.262;12.210;2023-05-29T00:06:24;15.50;99.90
74869;DHT22;63419;42.262;12.210;2023-05-29T00:08:51;15.40;99.90
74869;DHT22;63419;42.262;12.210;2023-05-29T00:11:19;15.50;99.90
74869;DHT22;63419;42.262;12.210;2023-05-29T00:13:47;15.50;99.90
74869;DHT22;63419;42.262;12.210;2023-05-29T00:16:14;15.50;99.90
74869;DHT22;63419;42.262;12.210;2023-05-29T00:18:42;15.40;99.90
74869;DHT22;63419;42.262;12.210;2023-05-29T00:21:13;15.30;99.90
74869;DHT22;63419;42.262;12.210;2023-05-29T00:23:41;15.20;99.90
74869;DHT22;63419;42.262;12.210;2023-05-29T00:26:11;15.10;99.90
74869;DHT22;63419;42.262;12.210;2023-05-29T00:28:39;15.10;99.90
74869;DHT22;63419;42.262;12.210;2023-05-29T00:31:07;14.90;99.90
74869;DHT22;63419;42.262;12.210;2023-05-29T00:33:34;14.80;99.90
74869;DHT22;63419;42.262;12.210;2023-05-29T00:36:02;14.80;99.90
74869;DHT22;63419;42.262;12.210;2023-05-29T00:38:34;14.90;99.90
74869;DHT22;63419;42.262;12.210;2023-05-29T00:41:01;14.90;99.90
74869;DHT22;63419;42.262;12.210;2023-05-29T00:43:29;15.00;99.90
74869;DHT22;63419;42.262;12.210;2023-05-29T00:45:57;15.10;99.90
74869;DHT22;63419;42.262;12.210;2023-05-29T00:48:25;15.10;99.90
74869;DHT22;63419;42.262;12.210;2023-05-29T00:50:53;14.80;99.90
74869;DHT22;63419;42.262;12.210;2023-05-29T00:53:23;14.70;99.90
74869;DHT22;63419;42.262;12.210;2023-05-29T00:55:51;14.60;99.90
74869;DHT22;63419;42.262;12.210;2023-05-29T00:58:20;14.50;99.90
74869;DHT22;63419;42.262;12.210;2023-05-29T01:00:48;14.20;99.90
74869;DHT22;63419;42.262;12.210;2023-05-29T01:03:18;14.20;99.90
74869;DHT22;63419;42.262;12.210;2023-05-29T01:05:46;14.10;99.90
74869;DHT22;63419;42.262;12.210;2023-05-29T01:08:13;14.00;99.90
74869;DHT22;63419;42.262;12.210;2023-05-29T01:10:41;14.20;99.90
74869;DHT22;63419;42.262;12.210;2023-05-29T01:13:19;14.30;99.90
74869;DHT22;63419;42.262;12.210;2023-05-29T01:16:00;14.50;99.90
74869;DHT22;63419;42.262;12.210;2023-05-29T01:22:09;14.70;99.90
74869;DHT22;63419;42.262;12.210;2023-05-29T01:24:49;14.80;99.90
74869;DHT22;63419;42.262;12.210;2023-05-29T01:27:26;14.80;99.90
74869;DHT22;63419;42.262;12.210;2023-05-29T01:29:58;14.30;99.90
74869;DHT22;63419;42.262;12.210;2023-05-29T01:32:28;14.30;99.90
74869;DHT22;63419;42.262;12.210;2023-05-29T01:34:57;14.30;99.90
74869;DHT22;63419;42.262;12.210;2023-05-29T01:37:24;14.30;99.90
74869;DHT22;63419;42.262;12.210;2023-05-29T01:39:52;14.30;99.90
74869;DHT22;63419;42.262;12.210;2023-05-29T01:42:20;14.30;99.90
74869;DHT22;63419;42.262;12.210;2023-05-29T01:44:49;14.40;99.90
74869;DHT22;63419;42.262;12.210;2023-05-29T01:47:17;14.50;99.90
74869;DHT22;63419;42.262;12.210;2023-05-29T01:49:47;14.60;99.90
74869;DHT22;63419;42.262;12.210;2023-05-29T01:52:18;14.70;99.90
74869;DHT22;63419;42.262;12.210;2023-05-29T01:54:46;14.80;99.90
74869;DHT22;63419;42.262;12.210;2023-05-29T01:57:14;14.70;99.90
74869;DHT22;63419;42.262;12.210;2023-05-29T01:59:44;14.80;99.90
74869;DHT22;63419;42.262;12.210;2023-05-29T02:02:13;14.30;99.90
74869;DHT22;63419;42.262;12.210;2023-05-29T02:04:42;14.10;99.90
74869;DHT22;63419;42.262;12.210;2023-05-29T02:07:10;14.00;99.90
74869;DHT22;63419;42.262;12.210;2023-05-29T02:09:39;13.80;99.90
74869;DHT22;63419;42.262;12.210;2023-05-29T02:12:06;13.70;99.90
74869;DHT22;63419;42.262;12.210;2023-05-29T02:14:34;13.70;99.90
74869;DHT22;63419;42.262;12.210;2023-05-29T02:17:02;13.80;99.90
74869;DHT22;63419;42.262;12.210;2023-05-29T02:19:29;13.80;99.90
74869;DHT22;63419;42.262;12.210;2023-05-29T02:21:57;13.70;99.90
74869;DHT22;63419;42.262;12.210;2023-05-29T02:24:24;13.70;99.90
74869;DHT22;63419;42.262;12.210;2023-05-29T02:26:52;13.60;99.90
74869;DHT22;63419;42.262;12.210;2023-05-29T02:29:20;13.80;99.90
74869;DHT22;63419;42.262;12.210;2023-05-29T02:31:47;13.90;99.90
74869;DHT22;63419;42.262;12.210;2023-05-29T02:34:15;14.00;99.90
74869;DHT22;63419;42.262;12.210;2023-05-29T02:36:42;14.00;99.90
74869;DHT22;63419;42.262;12.210;2023-05-29T02:39:09;14.10;99.90
74869;DHT22;63419;42.262;12.210;2023-05-29T02:41:37;14.10;99.90
74869;DHT22;63419;42.262;12.210;2023-05-29T02:44:04;14.20;99.90
74869;DHT22;63419;42.262;12.210;2023-05-29T02:46:32;14.20;99.90
74869;DHT22;63419;42.262;12.210;2023-05-29T02:48:59;14.10;99.90
74869;DHT22;63419;42.262;12.210;2023-05-29T02:51:27;14.00;99.90
74869;DHT22;63419;42.262;12.210;2023-05-29T02:53:55;14.00;99.90
74869;DHT22;63419;42.262;12.210;2023-05-29T02:56:22;14.00;99.90
74869;DHT22;63419;42.262;12.210;2023-05-29T02:58:53;14.10;99.90
74869;DHT22;63419;42.262;12.210;2023-05-29T03:01:20;14.10;99.90
74869;DHT22;63419;42.262;12.210;2023-05-29T03:03:48;14.00;99.90
74869;DHT22;63419;42.262;12.210;2023-05-29T03:06:15;13.90;99.90
74869;DHT22;63419;42.262;12.210;2023-05-29T03:08:44;13.90;99.90
74869;DHT22;63419;42.262;12.210;2023-05-29T03:11:13;14.00;99.90
74869;DHT22;63419;42.262;12.210;2023-05-29T03:13:42;13.80;99.90
74869;DHT22;63419;42.262;12.210;2023-05-29T03:16:09;13.20;99.90
74869;DHT22;63419;42.262;12.210;2023-05-29T03:18:37;12.90;99.90
74869;DHT22;63419;42.262;12.210;2023-05-29T03:21:04;12.70;99.90
74869;DHT22;63419;42.262;12.210;2023-05-29T03:23:31;12.70;99.90
74869;DHT22;63419;42.262;12.210;2023-05-29T03:25:59;12.70;99.90
74869;DHT22;63419;42.262;12.210;2023-05-29T03:28:27;12.80;99.90
74869;DHT22;63419;42.262;12.210;2023-05-29T03:30:54;12.90;99.90
74869;DHT22;63419;42.262;12.210;2023-05-29T03:33:22;13.10;99.90
74869;DHT22;63419;42.262;12.210;2023-05-29T03:35:49;13.20;99.90
74869;DHT22;63419;42.262;12.210;2023-05-29T03:38:17;13.30;99.90
74869;DHT22;63419;42.262;12.210;2023-05-29T03:40:44;13.40;99.90
74869;DHT22;63419;42.262;12.210;2023-05-29T03:43:29;13.50;99.90
74869;DHT22;63419;42.262;12.210;2023-05-29T03:45:56;13.50;99.90
74869;DHT22;63419;42.262;12.210;2023-05-29T03:48:24;13.50;99.90
74869;DHT22;63419;42.262;12.210;2023-05-29T03:50:51;13.60;99.90
74869;DHT22;63419;42.262;12.210;2023-05-29T03:53:19;13.60;99.90
74869;DHT22;63419;42.262;12.210;2023-05-29T03:55:46;13.70;99.90
74869;DHT22;63419;42.262;12.210;2023-05-29T03:58:14;13.70;99.90
74869;DHT22;63419;42.262;12.210;2023-05-29T04:00:42;13.70;99.90
74869;DHT22;63419;42.262;12.210;2023-05-29T04:03:10;13.70;99.90
74869;DHT22;63419;42.262;12.210;2023-05-29T04:05:38;13.80;99.90
74869;DHT22;63419;42.262;12.210;2023-05-29T04:08:05;13.90;99.90
74869;DHT22;63419;42.262;12.210;2023-05-29T04:10:42;14.00;99.90
74869;DHT22;63419;42.262;12.210;2023-05-29T04:13:10;14.10;99.90
74869;DHT22;63419;42.262;12.210;2023-05-29T04:15:37;14.20;99.90
74869;DHT22;63419;42.262;12.210;2023-05-29T04:18:05;14.30;99.90
74869;DHT22;63419;42.262;12.210;2023-05-29T04:20:32;14.40;99.90
74869;DHT22;63419;42.262;12.210;2023-05-29T04:23:00;14.50;99.90
74869;DHT22;63419;42.262;12.210;2023-05-29T04:25:27;14.50;99.90
74869;DHT22;63419;42.262;12.210;2023-05-29T04:27:55;14.70;99.90
74869;DHT22;63419;42.262;12.210;2023-05-29T04:30:22;14.50;99.90
74869;DHT22;63419;42.262;12.210;2023-05-29T04:32:50;14.20;99.90
74869;DHT22;63419;42.262;12.210;2023-05-29T04:35:19;14.00;99.90
74869;DHT22;63419;42.262;12.210;2023-05-29T04:37:46;13.90;99.90
74869;DHT22;63419;42.262;12.210;2023-05-29T04:40:14;14.00;99.90
74869;DHT22;63419;42.262;12.210;2023-05-29T04:42:44;14.10;99.90
74869;DHT22;63419;42.262;12.210;2023-05-29T04:45:14;14.30;99.90
74869;DHT22;63419;42.262;12.210;2023-05-29T04:47:43;14.50;99.90
74869;DHT22;63419;42.262;12.210;2023-05-29T04:50:12;14.70;99.90
74869;DHT22;63419;42.262;12.210;2023-05-29T04:52:40;14.80;99.90
74869;DHT22;63419;42.262;12.210;2023-05-29T04:55:09;14.40;99.90
74869;DHT22;63419;42.262;12.210;2023-05-29T04:57:38;14.20;99.90
74869;DHT22;63419;42.262;12.210;2023-05-29T05:00:07;14.10;99.90
74869;DHT22;63419;42.262;12.210;2023-05-29T05:02:39;14.00;99.90
74869;DHT22;63419;42.262;12.210;2023-05-29T05:05:15;14.20;99.90
74869;DHT22;63419;42.262;12.210;2023-05-29T05:07:42;14.40;99.90
74869;DHT22;63419;42.262;12.210;2023-05-29T05:10:10;14.50;99.90
74869;DHT22;63419;42.262;12.210;2023-05-29T05:12:40;14.80;99.90
74869;DHT22;63419;42.262;12.210;2023-05-29T05:15:09;15.00;99.90
74869;DHT22;63419;42.262;12.210;2023-05-29T05:17:39;15.10;99.90
74869;DHT22;63419;42.262;12.210;2023-05-29T05:20:07;14.90;99.90
74869;DHT22;63419;42.262;12.210;2023-05-29T05:22:35;14.80;99.90
74869;DHT22;63419;42.262;12.210;2023-05-29T05:25:04;15.00;99.90
74869;DHT22;63419;42.262;12.210;2023-05-29T05:27:33;15.30;99.90
74869;DHT22;63419;42.262;12.210;2023-05-29T05:30:03;15.50;99.90
74869;DHT22;63419;42.262;12.210;2023-05-29T05:32:34;15.40;99.90
74869;DHT22;63419;42.262;12.210;2023-05-29T05:35:03;15.60;99.90
74869;DHT22;63419;42.262;12.210;2023-05-29T05:37:38;15.70;99.90
74869;DHT22;63419;42.262;12.210;2023-05-29T05:40:06;15.70;99.90
74869;DHT22;63419;42.262;12.210;2023-05-29T05:42:35;15.70;99.90
74869;DHT22;63419;42.262;12.210;2023-05-29T05:45:03;15.60;99.90
74869;DHT22;63419;42.262;12.210;2023-05-29T05:47:32;15.70;99.90
74869;DHT22;63419;42.262;12.210;2023-05-29T05:49:59;15.80;99.90
74869;DHT22;63419;42.262;12.210;2023-05-29T05:52:28;15.90;99.90
74869;DHT22;63419;42.262;12.210;2023-05-29T05:54:58;16.20;99.90
74869;DHT22;63419;42.262;12.210;2023-05-29T05:57:26;16.50;99.90
74869;DHT22;63419;42.262;12.210;2023-05-29T05:59:54;16.70;99.90
74869;DHT22;63419;42.262;12.210;2023-05-29T06:02:22;16.90;99.90
74869;DHT22;63419;42.262;12.210;2023-05-29T06:04:49;17.10;99.90
74869;DHT22;63419;42.262;12.210;2023-05-29T06:07:20;17.30;99.90
74869;DHT22;63419;42.262;12.210;2023-05-29T06:09:48;17.60;99.90
74869;DHT22;63419;42.262;12.210;2023-05-29T06:12:15;17.70;99.90
74869;DHT22;63419;42.262;12.210;2023-05-29T06:14:43;17.80;99.90
74869;DHT22;63419;42.262;12.210;2023-05-29T06:17:10;18.00;99.90
74869;DHT22;63419;42.262;12.210;2023-05-29T06:19:38;17.90;99.90
74869;DHT22;63419;42.262;12.210;2023-05-29T06:22:05;18.20;99.90
74869;DHT22;63419;42.262;12.210;2023-05-29T06:24:33;18.40;99.90
74869;DHT22;63419;42.262;12.210;2023-05-29T06:27:00;18.50;99.90
74869;DHT22;63419;42.262;12.210;2023-05-29T06:29:28;18.70;99.90
74869;DHT22;63419;42.262;12.210;2023-05-29T06:31:55;18.80;99.90
74869;DHT22;63419;42.262;12.210;2023-05-29T06:34:23;18.90;99.90
74869;DHT22;63419;42.262;12.210;2023-05-29T06:36:51;18.90;99.90
74869;DHT22;63419;42.262;12.210;2023-05-29T06:39:18;18.90;99.90
74869;DHT22;63419;42.262;12.210;2023-05-29T06:41:47;19.10;99.90
74869;DHT22;63419;42.262;12.210;2023-05-29T06:44:14;19.30;99.90
74869;DHT22;63419;42.262;12.210;2023-05-29T06:46:42;19.40;99.90
74869;DHT22;63419;42.262;12.210;2023-05-29T06:49:09;19.50;99.90
74869;DHT22;63419;42.262;12.210;2023-05-29T06:51:37;19.70;99.90
74869;DHT22;63419;42.262;12.210;2023-05-29T06:54:04;19.70;99.90
74869;DHT22;63419;42.262;12.210;2023-05-29T06:56:31;19.60;99.90
74869;DHT22;63419;42.262;12.210;2023-05-29T06:58:59;19.70;99.90
74869;DHT22;63419;42.262;12.210;2023-05-29T07:01:26;19.90;99.90
74869;DHT22;63419;42.262;12.210;2023-05-29T07:03:54;19.90;99.90
74869;DHT22;63419;42.262;12.210;2023-05-29T07:06:22;20.00;99.90
74869;DHT22;63419;42.262;12.210;2023-05-29T07:08:50;20.20;99.90
74869;DHT22;63419;42.262;12.210;2023-05-29T07:11:18;20.20;99.90
74869;DHT22;63419;42.262;12.210;2023-05-29T07:13:45;20.20;99.90
74869;DHT22;63419;42.262;12.210;2023-05-29T07:16:13;20.60;99.90
74869;DHT22;63419;42.262;12.210;2023-05-29T07:18:51;20.70;99.90
74869;DHT22;63419;42.262;12.210;2023-05-29T07:21:19;20.80;99.90
74869;DHT22;63419;42.262;12.210;2023-05-29T07:23:47;20.80;99.90
74869;DHT22;63419;42.262;12.210;2023-05-29T07:26:14;20.80;99.90
74869;DHT22;63419;42.262;12.210;2023-05-29T07:28:42;20.80;99.90
74869;DHT22;63419;42.262;12.210;2023-05-29T07:31:10;20.90;99.90
74869;DHT22;63419;42.262;12.210;2023-05-29T07:33:40;21.10;99.90
74869;DHT22;63419;42.262;12.210;2023-05-29T07:36:08;21.30;99.90
74869;DHT22;63419;42.262;12.210;2023-05-29T07:38:35;21.40;99.90
74869;DHT22;63419;42.262;12.210;2023-05-29T07:41:03;21.40;99.90
74869;DHT22;63419;42.262;12.210;2023-05-29T07:43:30;21.50;99.90
74869;DHT22;63419;42.262;12.210;2023-05-29T07:45:57;21.70;99.90
74869;DHT22;63419;42.262;12.210;2023-05-29T07:48:25;21.70;99.90
74869;DHT22;63419;42.262;12.210;2023-05-29T07:50:52;21.70;99.90
74869;DHT22;63419;42.262;12.210;2023-05-29T07:53:20;21.90;99.90
74869;DHT22;63419;42.262;12.210;2023-05-29T07:55:48;22.10;99.90
74869;DHT22;63419;42.262;12.210;2023-05-29T07:58:15;21.90;99.90
74869;DHT22;63419;42.262;12.210;2023-05-29T08:00:44;22.00;99.90
74869;DHT22;63419;42.262;12.210;2023-05-29T08:03:12;22.20;99.90
74869;DHT22;63419;42.262;12.210;2023-05-29T08:05:39;22.40;99.90
74869;DHT22;63419;42.262;12.210;2023-05-29T08:08:07;22.50;99.90
74869;DHT22;63419;42.262;12.210;2023-05-29T08:10:35;22.60;99.90
74869;DHT22;63419;42.262;12.210;2023-05-29T08:13:02;22.80;99.90
74869;DHT22;63419;42.262;12.210;2023-05-29T08:15:29;22.80;99.90
74869;DHT22;63419;42.262;12.210;2023-05-29T08:17:58;22.80;99.90
74869;DHT22;63419;42.262;12.210;2023-05-29T08:20:26;23.00;99.90
74869;DHT22;63419;42.262;12.210;2023-05-29T08:22:53;23.20;99.90
74869;DHT22;63419;42.262;12.210;2023-05-29T08:25:20;23.10;99.90
74869;DHT22;63419;42.262;12.210;2023-05-29T08:27:48;23.10;99.90
74869;DHT22;63419;42.262;12.210;2023-05-29T08:30:16;23.30;99.90
74869;DHT22;63419;42.262;12.210;2023-05-29T08:32:45;23.40;99.90
74869;DHT22;63419;42.262;12.210;2023-05-29T08:35:13;23.60;99.90
74869;DHT22;63419;42.262;12.210;2023-05-29T08:37:41;23.70;99.90
74869;DHT22;63419;42.262;12.210;2023-05-29T08:40:11;23.90;99.90
74869;DHT22;63419;42.262;12.210;2023-05-29T08:42:45;23.60;99.90
74869;DHT22;63419;42.262;12.210;2023-05-29T08:45:14;23.70;99.90
74869;DHT22;63419;42.262;12.210;2023-05-29T08:47:43;23.70;99.90
74869;DHT22;63419;42.262;12.210;2023-05-29T08:50:14;23.60;99.90
74869;DHT22;63419;42.262;12.210;2023-05-29T08:52:43;23.80;99.90
74869;DHT22;63419;42.262;12.210;2023-05-29T08:55:11;24.10;99.90
74869;DHT22;63419;42.262;12.210;2023-05-29T08:57:40;23.80;99.90
74869;DHT22;63419;42.262;12.210;2023-05-29T09:00:11;24.30;99.90
74869;DHT22;63419;42.262;12.210;2023-05-29T09:02:40;24.30;99.90
74869;DHT22;63419;42.262;12.210;2023-05-29T09:05:07;24.50;99.90
74869;DHT22;63419;42.262;12.210;2023-05-29T09:07:37;24.60;99.90
74869;DHT22;63419;42.262;12.210;2023-05-29T09:10:07;24.60;99.90
74869;DHT22;63419;42.262;12.210;2023-05-29T09:12:36;25.00;99.90
74869;DHT22;63419;42.262;12.210;2023-05-29T09:15:19;25.00;99.90
74869;DHT22;63419;42.262;12.210;2023-05-29T09:17:56;24.00;99.90
74869;DHT22;63419;42.262;12.210;2023-05-29T09:20:25;24.60;99.90
74869;DHT22;63419;42.262;12.210;2023-05-29T09:23:08;25.10;99.90
74869;DHT22;63419;42.262;12.210;2023-05-29T09:25:41;25.30;99.90
74869;DHT22;63419;42.262;12.210;2023-05-29T09:28:10;25.60;99.90
74869;DHT22;63419;42.262;12.210;2023-05-29T09:30:45;25.90;99.90
74869;DHT22;63419;42.262;12.210;2023-05-29T09:33:15;26.30;99.90
74869;DHT22;63419;42.262;12.210;2023-05-29T09:35:46;26.10;99.90
74869;DHT22;63419;42.262;12.210;2023-05-29T09:38:19;26.40;99.90
74869;DHT22;63419;42.262;12.210;2023-05-29T09:41:10;26.30;99.90
74869;DHT22;63419;42.262;12.210;2023-05-29T09:43:38;24.90;99.90
74869;DHT22;63419;42.262;12.210;2023-05-29T09:46:08;24.90;99.90
74869;DHT22;63419;42.262;12.210;2023-05-29T09:48:43;24.20;99.90
74869;DHT22;63419;42.262;12.210;2023-05-29T09:51:23;24.10;99.90
74869;DHT22;63419;42.262;12.210;2023-05-29T09:53:52;24.70;99.90
74869;DHT22;63419;42.262;12.210;2023-05-29T09:56:23;24.90;99.90
74869;DHT22;63419;42.262;12.210;2023-05-29T09:58:53;24.40;99.90
74869;DHT22;63419;42.262;12.210;2023-05-29T10:01:23;24.90;99.90
74869;DHT22;63419;42.262;12.210;2023-05-29T10:03:53;25.70;99.90
74869;DHT22;63419;42.262;12.210;2023-05-29T10:06:21;25.20;99.90
74869;DHT22;63419;42.262;12.210;2023-05-29T10:08:50;25.30;99.90
74869;DHT22;63419;42.262;12.210;2023-05-29T10:11:23;25.00;99.90
74869;DHT22;63419;42.262;12.210;2023-05-29T10:13:56;23.70;99.90
74869;DHT22;63419;42.262;12.210;2023-05-29T10:16:25;23.10;99.90
74869;DHT22;63419;42.262;12.210;2023-05-29T10:18:57;23.30;99.90
74869;DHT22;63419;42.262;12.210;2023-05-29T10:21:28;24.40;99.90
74869;DHT22;63419;42.262;12.210;2023-05-29T10:23:57;24.60;99.90
74869;DHT22;63419;42.262;12.210;2023-05-29T10:26:25;25.50;99.90
74869;DHT22;63419;42.262;12.210;2023-05-29T10:29:03;24.80;99.90
74869;DHT22;63419;42.262;12.210;2023-05-29T10:37:52;27.20;99.90
74869;DHT22;63419;42.262;12.210;2023-05-29T10:40:40;28.50;99.90
74869;DHT22;63419;42.262;12.210;2023-05-29T10:43:08;28.30;99.90
74869;DHT22;63419;42.262;12.210;2023-05-29T10:50:41;29.80;99.50
74869;DHT22;63419;42.262;12.210;2023-05-29T10:53:16;30.30;99.50
74869;DHT22;63419;42.262;12.210;2023-05-29T10:55:50;28.50;99.90
74869;DHT22;63419;42.262;12.210;2023-05-29T10:58:20;25.00;99.90
74869;DHT22;63419;42.262;12.210;2023-05-29T11:00:51;24.10;99.90
74869;DHT22;63419;42.262;12.210;2023-05-29T11:03:25;24.30;99.90
74869;DHT22;63419;42.262;12.210;2023-05-29T11:06:06;24.50;99.90
74869;DHT22;63419;42.262;12.210;2023-05-29T11:08:47;24.70;99.90
74869;DHT22;63419;42.262;12.210;2023-05-29T11:11:46;24.30;99.90
74869;DHT22;63419;42.262;12.210;2023-05-29T11:15:18;23.90;99.90
74869;DHT22;63419;42.262;12.210;2023-05-29T11:17:48;23.80;99.90
74869;DHT22;63419;42.262;12.210;2023-05-29T11:20:33;23.10;99.90
74869;DHT22;63419;42.262;12.210;2023-05-29T11:23:05;22.70;99.90
74869;DHT22;63419;42.262;12.210;2023-05-29T11:25:40;22.30;99.90
74869;DHT22;63419;42.262;12.210;2023-05-29T11:28:08;22.20;99.90
74869;DHT22;63419;42.262;12.210;2023-05-29T11:30:45;22.50;99.90
74869;DHT22;63419;42.262;12.210;2023-05-29T11:33:24;22.30;99.90
74869;DHT22;63419;42.262;12.210;2023-05-29T11:35:56;22.40;99.90
74869;DHT22;63419;42.262;12.210;2023-05-29T11:38:26;22.40;99.90
74869;DHT22;63419;42.262;12.210;2023-05-29T11:40:55;23.30;99.90
74869;DHT22;63419;42.262;12.210;2023-05-29T11:43:25;23.80;99.90
74869;DHT22;63419;42.262;12.210;2023-05-29T11:45:53;23.90;99.90
74869;DHT22;63419;42.262;12.210;2023-05-29T11:48:20;24.50;99.90
74869;DHT22;63419;42.262;12.210;2023-05-29T11:50:48;24.70;99.90
74869;DHT22;63419;42.262;12.210;2023-05-29T11:53:16;25.00;99.90
74869;DHT22;63419;42.262;12.210;2023-05-29T11:55:43;24.50;99.90
74869;DHT22;63419;42.262;12.210;2023-05-29T11:58:11;23.80;99.90
74869;DHT22;63419;42.262;12.210;2023-05-29T12:00:39;24.10;99.90
74869;DHT22;63419;42.262;12.210;2023-05-29T12:03:11;23.90;99.90
74869;DHT22;63419;42.262;12.210;2023-05-29T12:05:49;24.10;99.90
74869;DHT22;63419;42.262;12.210;2023-05-29T12:08:24;25.70;99.90
74869;DHT22;63419;42.262;12.210;2023-05-29T12:10:52;26.60;99.90
74869;DHT22;63419;42.262;12.210;2023-05-29T12:13:21;28.50;99.90
74869;DHT22;63419;42.262;12.210;2023-05-29T12:15:56;26.20;99.90
74869;DHT22;63419;42.262;12.210;2023-05-29T12:18:26;25.40;99.90
74869;DHT22;63419;42.262;12.210;2023-05-29T12:21:01;25.30;99.90
74869;DHT22;63419;42.262;12.210;2023-05-29T12:23:30;27.00;99.90
74869;DHT22;63419;42.262;12.210;2023-05-29T12:25:58;26.10;99.90
74869;DHT22;63419;42.262;12.210;2023-05-29T12:28:26;26.90;99.90
74869;DHT22;63419;42.262;12.210;2023-05-29T12:30:58;25.90;99.90
74869;DHT22;63419;42.262;12.210;2023-05-29T12:33:30;25.10;99.90
74869;DHT22;63419;42.262;12.210;2023-05-29T12:38:49;25.30;99.90
74869;DHT22;63419;42.262;12.210;2023-05-29T12:41:28;24.30;99.90
74869;DHT22;63419;42.262;12.210;2023-05-29T12:44:04;24.30;99.90
74869;DHT22;63419;42.262;12.210;2023-05-29T12:46:40;24.60;99.90
74869;DHT22;63419;42.262;12.210;2023-05-29T12:49:17;24.20;99.90
74869;DHT22;63419;42.262;12.210;2023-05-29T12:51:52;25.40;99.90
74869;DHT22;63419;42.262;12.210;2023-05-29T12:54:20;25.00;99.90
74869;DHT22;63419;42.262;12.210;2023-05-29T12:56:47;24.20;99.90
74869;DHT22;63419;42.262;12.210;2023-05-29T12:59:17;24.10;99.90
74869;DHT22;63419;42.262;12.210;2023-05-29T13:01:44;23.70;99.90
74869;DHT22;63419;42.262;12.210;2023-05-29T13:04:12;24.10;99.90
74869;DHT22;63419;42.262;12.210;2023-05-29T13:06:40;23.60;99.90
74869;DHT22;63419;42.262;12.210;2023-05-29T13:09:07;23.70;99.90
74869;DHT22;63419;42.262;12.210;2023-05-29T13:11:35;23.50;99.90
74869;DHT22;63419;42.262;12.210;2023-05-29T13:14:04;23.40;99.90
74869;DHT22;63419;42.262;12.210;2023-05-29T13:16:32;23.90;99.90
74869;DHT22;63419;42.262;12.210;2023-05-29T13:19:00;23.90;99.90
74869;DHT22;63419;42.262;12.210;2023-05-29T13:21:27;23.40;99.90
74869;DHT22;63419;42.262;12.210;2023-05-29T13:23:55;23.90;99.90
74869;DHT22;63419;42.262;12.210;2023-05-29T13:26:22;24.20;99.90
74869;DHT22;63419;42.262;12.210;2023-05-29T13:28:50;24.40;99.90
74869;DHT22;63419;42.262;12.210;2023-05-29T13:31:18;25.30;99.90
74869;DHT22;63419;42.262;12.210;2023-05-29T13:33:48;25.30;99.90
74869;DHT22;63419;42.262;12.210;2023-05-29T13:36:15;24.10;99.90
74869;DHT22;63419;42.262;12.210;2023-05-29T13:38:42;24.80;99.90
74869;DHT22;63419;42.262;12.210;2023-05-29T13:41:11;26.30;99.90
74869;DHT22;63419;42.262;12.210;2023-05-29T13:43:38;25.90;99.90
74869;DHT22;63419;42.262;12.210;2023-05-29T13:46:12;24.00;99.90
74869;DHT22;63419;42.262;12.210;2023-05-29T13:48:39;24.50;99.90
74869;DHT22;63419;42.262;12.210;2023-05-29T13:51:07;24.10;99.90
74869;DHT22;63419;42.262;12.210;2023-05-29T13:53:34;24.80;99.90
74869;DHT22;63419;42.262;12.210;2023-05-29T13:56:02;23.80;99.90
74869;DHT22;63419;42.262;12.210;2023-05-29T13:58:29;23.90;99.90
74869;DHT22;63419;42.262;12.210;2023-05-29T14:00:57;24.10;99.90
74869;DHT22;63419;42.262;12.210;2023-05-29T14:03:24;24.70;99.90
74869;DHT22;63419;42.262;12.210;2023-05-29T14:05:56;24.40;99.90
74869;DHT22;63419;42.262;12.210;2023-05-29T14:08:24;24.40;99.90
74869;DHT22;63419;42.262;12.210;2023-05-29T14:10:52;24.70;99.90
74869;DHT22;63419;42.262;12.210;2023-05-29T14:13:19;25.20;99.90
74869;DHT22;63419;42.262;12.210;2023-05-29T14:15:46;25.70;99.90
74869;DHT22;63419;42.262;12.210;2023-05-29T14:18:16;25.00;99.90
74869;DHT22;63419;42.262;12.210;2023-05-29T14:20:43;24.60;99.90
74869;DHT22;63419;42.262;12.210;2023-05-29T14:23:17;24.60;99.90
74869;DHT22;63419;42.262;12.210;2023-05-29T14:25:45;25.30;99.90
74869;DHT22;63419;42.262;12.210;2023-05-29T14:28:13;25.80;99.90
74869;DHT22;63419;42.262;12.210;2023-05-29T14:30:40;26.90;99.90
74869;DHT22;63419;42.262;12.210;2023-05-29T14:33:07;25.10;99.90
74869;DHT22;63419;42.262;12.210;2023-05-29T14:35:35;25.80;99.90
74869;DHT22;63419;42.262;12.210;2023-05-29T14:38:02;25.60;99.90
74869;DHT22;63419;42.262;12.210;2023-05-29T14:40:30;27.40;99.90
74869;DHT22;63419;42.262;12.210;2023-05-29T14:42:58;26.60;99.90
74869;DHT22;63419;42.262;12.210;2023-05-29T14:45:25;26.10;99.90
74869;DHT22;63419;42.262;12.210;2023-05-29T14:47:53;26.20;99.90
74869;DHT22;63419;42.262;12.210;2023-05-29T14:50:20;26.60;99.90
74869;DHT22;63419;42.262;12.210;2023-05-29T14:52:48;26.40;99.90
74869;DHT22;63419;42.262;12.210;2023-05-29T14:55:15;27.20;99.90
74869;DHT22;63419;42.262;12.210;2023-05-29T14:57:42;26.10;99.90
74869;DHT22;63419;42.262;12.210;2023-05-29T15:00:10;25.60;99.90
74869;DHT22;63419;42.262;12.210;2023-05-29T15:02:38;26.70;99.90
74869;DHT22;63419;42.262;12.210;2023-05-29T15:05:08;28.80;99.90
74869;DHT22;63419;42.262;12.210;2023-05-29T15:07:36;30.90;99.90
74869;DHT22;63419;42.262;12.210;2023-05-29T15:10:04;29.40;99.20
74869;DHT22;63419;42.262;12.210;2023-05-29T15:12:32;26.60;99.90
74869;DHT22;63419;42.262;12.210;2023-05-29T15:14:59;23.80;99.90
74869;DHT22;63419;42.262;12.210;2023-05-29T15:17:27;23.40;99.90
74869;DHT22;63419;42.262;12.210;2023-05-29T15:19:54;21.80;99.90
74869;DHT22;63419;42.262;12.210;2023-05-29T15:22:23;21.20;99.90
74869;DHT22;63419;42.262;12.210;2023-05-29T15:24:50;20.40;99.90
74869;DHT22;63419;42.262;12.210;2023-05-29T15:27:18;20.50;99.90
74869;DHT22;63419;42.262;12.210;2023-05-29T15:29:45;20.40;99.90
74869;DHT22;63419;42.262;12.210;2023-05-29T15:32:12;20.40;99.90
74869;DHT22;63419;42.262;12.210;2023-05-29T15:34:40;20.30;99.90
74869;DHT22;63419;42.262;12.210;2023-05-29T15:37:07;19.50;99.90
74869;DHT22;63419;42.262;12.210;2023-05-29T15:39:35;20.00;99.90
74869;DHT22;63419;42.262;12.210;2023-05-29T15:42:04;20.50;99.90
74869;DHT22;63419;42.262;12.210;2023-05-29T15:44:37;22.60;99.90
74869;DHT22;63419;42.262;12.210;2023-05-29T15:47:04;23.80;99.90